Thornville, Ohio
Current Conditions -  °F | °C
As of 10:54 PM on Thursday 18 Dec 2014 (Local Time) from KVTA Reporting Station
Overcast Overcast  
Wind Chill: 29°   Ceiling: 2100
Heat Index: 29°   Visibility: 9mi
Dew Point: 23°   Wind: 3mph
Humidity: 78%   Direction: 310°NW
Pressure: 30.2"   Gusts: NA
Location:  39.9°N, 82.42°W
Report Text: KVTA 190354Z AUTO 31003KT 9SM OVC021 M02/M05 A3020 RMK AO2 SLP238 T10171050
Loading
Personal Weather Stations






























Interactive Weather Map New forecast layout! Learn more

10-Day Weather Forecast

Advertisements
Track Severe Weather on mobile